Time;durP1;ratioP1;P1;durP2;ratioP2;P2;SDS_P1;SDS_P2;PMS_P1;PMS_P2;Temp;Humidity;BMP_temperature;BMP_pressure;BME280_temperature;BME280_humidity;BME280_pressure;Samples;Min_cycle;Max_cycle;Signal;HPM_P1;HPM_P2
2022/06/29 00:00:13;;;;;;;;;;;30.00;81.70;;;;;;5111904;28;19928;-77
2022/06/29 00:02:42;;;;;;;;;;;30.00;81.90;;;;;;5113205;28;20385;-75
2022/06/29 00:05:10;;;;;;;;;;;29.90;82.00;;;;;;5111698;28;20051;-74
2022/06/29 00:07:38;;;;;;;;;;;29.90;82.00;;;;;;5111907;28;20393;-75
2022/06/29 00:10:05;;;;;;;;;;;29.80;82.00;;;;;;5094740;28;20010;-75
2022/06/29 00:12:33;;;;;;;;;;;29.90;82.10;;;;;;5078009;28;19924;-75
2022/06/29 00:15:03;;;;;;;;;;;29.90;82.10;;;;;;5112563;28;19923;-74
2022/06/29 00:17:31;;;;;;;;;;;29.90;82.10;;;;;;5111588;28;19962;-74
2022/06/29 00:20:03;;;;;;;;;;;29.80;82.30;;;;;;5111368;28;19927;-74
2022/06/29 00:22:32;;;;;;;;;;;29.80;82.30;;;;;;5111313;28;20081;-74
2022/06/29 00:24:59;;;;;;;;;;;29.80;82.20;;;;;;5111029;28;19924;-75
2022/06/29 00:27:26;;;;;;;;;;;29.90;82.20;;;;;;5110918;28;19930;-74
2022/06/29 00:29:54;;;;;;;;;;;29.80;82.00;;;;;;5077720;28;19924;-75
2022/06/29 00:32:21;;;;;;;;;;;29.90;81.90;;;;;;5110052;28;19931;-75
2022/06/29 00:34:49;;;;;;;;;;;29.80;82.00;;;;;;5093173;28;19923;-74
2022/06/29 00:37:16;;;;;;;;;;;29.80;81.90;;;;;;5077465;28;19923;-74
2022/06/29 00:39:44;;;;;;;;;;;29.80;82.20;;;;;;5111035;28;19920;-74
2022/06/29 00:42:11;;;;;;;;;;;29.50;82.60;;;;;;5094285;28;19923;-75
2022/06/29 00:44:38;;;;;;;;;;;29.30;82.90;;;;;;5110641;28;20018;-75
2022/06/29 00:47:06;;;;;;;;;;;29.40;83.00;;;;;;5094254;28;19967;-74
2022/06/29 00:49:34;;;;;;;;;;;29.40;82.90;;;;;;5110697;28;20042;-74
2022/06/29 00:52:03;;;;;;;;;;;29.40;83.10;;;;;;5094352;28;20271;-74
2022/06/29 00:54:38;;;;;;;;;;;29.30;82.60;;;;;;5093595;28;19923;-75
2022/06/29 00:57:07;;;;;;;;;;;29.20;82.70;;;;;;5111911;28;19928;-74
2022/06/29 00:59:40;;;;;;;;;;;29.00;83.00;;;;;;5094144;28;19926;-75
2022/06/29 01:02:08;;;;;;;;;;;28.90;83.20;;;;;;5094414;28;20022;-77
2022/06/29 01:04:35;;;;;;;;;;;28.90;82.90;;;;;;5111016;28;19955;-77
2022/06/29 01:07:03;;;;;;;;;;;28.90;82.70;;;;;;5093770;28;19923;-76
2022/06/29 01:09:31;;;;;;;;;;;28.80;82.50;;;;;;5110979;28;19924;-76
2022/06/29 01:11:59;;;;;;;;;;;28.80;82.20;;;;;;5093891;28;19930;-77
2022/06/29 01:14:26;;;;;;;;;;;28.90;82.00;;;;;;5093556;28;19930;-76
2022/06/29 01:16:55;;;;;;;;;;;29.00;81.60;;;;;;5110642;28;19923;-77
2022/06/29 01:19:23;;;;;;;;;;;29.00;81.20;;;;;;5093215;28;20386;-77
2022/06/29 01:21:51;;;;;;;;;;;29.00;81.30;;;;;;5122916;27;19919;-76
2022/06/29 01:24:20;;;;;;;;;;;29.10;81.50;;;;;;5092928;28;19973;-76
2022/06/29 01:26:48;;;;;;;;;;;29.00;81.60;;;;;;5092769;28;20018;-77
2022/06/29 01:29:15;;;;;;;;;;;28.90;82.40;;;;;;5110064;28;20289;-75
2022/06/29 01:31:43;;;;;;;;;;;28.90;82.40;;;;;;5110403;28;19958;-74
2022/06/29 01:34:11;;;;;;;;;;;28.90;82.20;;;;;;5109969;28;19961;-74
2022/06/29 01:36:38;;;;;;;;;;;28.90;82.00;;;;;;5108962;28;20292;-75
2022/06/29 01:39:05;;;;;;;;;;;28.90;81.50;;;;;;5106823;28;19930;-75
2022/06/29 01:41:35;;;;;;;;;;;29.00;81.40;;;;;;5111566;28;19929;-75
2022/06/29 01:44:02;;;;;;;;;;;29.10;81.50;;;;;;5109503;28;20030;-76
2022/06/29 01:46:29;;;;;;;;;;;29.20;81.60;;;;;;5110196;28;19924;-74
2022/06/29 01:48:57;;;;;;;;;;;29.20;81.80;;;;;;5110352;28;19924;-74
2022/06/29 01:51:24;;;;;;;;;;;29.10;84.10;;;;;;5111125;28;19935;-74
2022/06/29 01:53:52;;;;;;;;;;;28.90;85.80;;;;;;5092982;28;20353;-74
2022/06/29 01:56:19;;;;;;;;;;;28.80;86.80;;;;;;5110040;28;19919;-74
2022/06/29 01:58:47;;;;;;;;;;;28.70;87.00;;;;;;5110205;28;19962;-74
2022/06/29 02:01:15;;;;;;;;;;;28.60;87.10;;;;;;5092835;28;19930;-74
2022/06/29 02:03:42;;;;;;;;;;;28.40;87.50;;;;;;5093400;28;20472;-74
2022/06/29 02:06:10;;;;;;;;;;;28.20;88.00;;;;;;5092929;28;19930;-74
2022/06/29 02:08:37;;;;;;;;;;;28.20;89.50;;;;;;5109996;28;19924;-74
2022/06/29 02:11:05;;;;;;;;;;;28.00;90.50;;;;;;5110093;28;19982;-74
2022/06/29 02:13:33;;;;;;;;;;;28.00;91.40;;;;;;5110099;28;19927;-74
2022/06/29 02:16:00;;;;;;;;;;;27.70;92.60;;;;;;5092726;28;19977;-75
2022/06/29 02:18:28;;;;;;;;;;;27.60;93.70;;;;;;5110831;28;19923;-74
2022/06/29 02:20:55;;;;;;;;;;;27.50;94.90;;;;;;5110859;28;19923;-74
2022/06/29 02:23:22;;;;;;;;;;;27.20;96.40;;;;;;5126976;28;19924;-73
2022/06/29 02:25:50;;;;;;;;;;;27.10;97.30;;;;;;5110122;28;19963;-75
2022/06/29 02:28:17;;;;;;;;;;;27.10;98.20;;;;;;5093051;28;19930;-75
2022/06/29 02:36:16;;;;;;;;;;;27.20;99.00;;;;;;5107013;28;20386;-75
2022/06/29 02:38:44;;;;;;;;;;;27.30;99.50;;;;;;5092458;28;20438;-75
2022/06/29 02:41:11;;;;;;;;;;;27.20;99.90;;;;;;5092590;28;20379;-75
2022/06/29 02:43:38;;;;;;;;;;;27.00;99.90;;;;;;5092155;28;20014;-75
2022/06/29 02:46:05;;;;;;;;;;;27.10;99.90;;;;;;5109428;28;19920;-75
2022/06/29 02:48:33;;;;;;;;;;;27.00;99.90;;;;;;5092836;28;19932;-75
2022/06/29 02:51:00;;;;;;;;;;;26.90;99.90;;;;;;5109101;28;20412;-75
2022/06/29 02:53:27;;;;;;;;;;;26.60;99.90;;;;;;5110464;28;19923;-75
2022/06/29 02:55:55;;;;;;;;;;;26.50;99.90;;;;;;5113778;28;19923;-73
2022/06/29 02:58:22;;;;;;;;;;;26.40;99.90;;;;;;5114378;28;19951;-75
2022/06/29 03:00:50;;;;;;;;;;;26.50;99.90;;;;;;5109438;28;20266;-75
2022/06/29 03:03:17;;;;;;;;;;;26.40;99.90;;;;;;5105701;28;19954;-76
2022/06/29 03:05:45;;;;;;;;;;;26.50;99.90;;;;;;5096212;28;20353;-75
2022/06/29 03:08:12;;;;;;;;;;;26.40;99.90;;;;;;5095825;28;20026;-75
2022/06/29 03:10:39;;;;;;;;;;;26.30;99.90;;;;;;5112462;28;19924;-75
2022/06/29 03:13:07;;;;;;;;;;;26.20;99.90;;;;;;5114035;28;19923;-75
2022/06/29 03:15:34;;;;;;;;;;;26.20;99.90;;;;;;5094986;28;19969;-75
2022/06/29 03:18:01;;;;;;;;;;;26.30;99.90;;;;;;5112649;28;19919;-75
2022/06/29 03:20:29;;;;;;;;;;;26.40;99.90;;;;;;5112306;28;19923;-75
2022/06/29 03:22:56;;;;;;;;;;;26.40;99.90;;;;;;5095385;28;20374;-75
2022/06/29 03:25:24;;;;;;;;;;;26.40;99.90;;;;;;5094748;28;19919;-75
2022/06/29 03:27:51;;;;;;;;;;;26.40;99.90;;;;;;5112844;28;19919;-75
2022/06/29 03:30:18;;;;;;;;;;;26.40;99.90;;;;;;5112822;28;20026;-75
2022/06/29 03:32:46;;;;;;;;;;;26.40;99.90;;;;;;5095326;28;20014;-75
2022/06/29 03:35:13;;;;;;;;;;;26.40;99.90;;;;;;5111265;28;19970;-75
2022/06/29 03:37:40;;;;;;;;;;;26.50;99.90;;;;;;5112276;28;20050;-76
2022/06/29 03:40:08;;;;;;;;;;;26.50;99.90;;;;;;5112723;28;19923;-75
2022/06/29 03:42:35;;;;;;;;;;;26.60;99.90;;;;;;5112401;28;19957;-76
2022/06/29 03:45:03;;;;;;;;;;;26.60;99.90;;;;;;5094765;28;20363;-75
2022/06/29 03:47:30;;;;;;;;;;;26.70;99.90;;;;;;5112553;28;19958;-75
2022/06/29 03:49:58;;;;;;;;;;;26.80;99.90;;;;;;5112697;28;20362;-75
2022/06/29 03:52:25;;;;;;;;;;;26.50;99.90;;;;;;5095453;28;19969;-76
2022/06/29 03:54:53;;;;;;;;;;;26.40;99.90;;;;;;5113436;28;19923;-74
2022/06/29 03:57:20;;;;;;;;;;;26.40;99.90;;;;;;5111742;28;19923;-75
2022/06/29 03:59:48;;;;;;;;;;;26.40;99.90;;;;;;5111975;28;19984;-75
2022/06/29 04:02:15;;;;;;;;;;;26.40;99.90;;;;;;5111798;28;19930;-76
2022/06/29 04:04:42;;;;;;;;;;;26.50;99.90;;;;;;5095177;28;20288;-75
2022/06/29 04:07:10;;;;;;;;;;;26.40;99.90;;;;;;5110976;28;19919;-75
2022/06/29 04:09:37;;;;;;;;;;;26.50;99.90;;;;;;5112818;28;19930;-76
2022/06/29 04:12:05;;;;;;;;;;;26.40;99.90;;;;;;5111810;28;20477;-75
2022/06/29 04:14:32;;;;;;;;;;;26.60;99.90;;;;;;5094360;28;19923;-75
2022/06/29 04:16:59;;;;;;;;;;;26.70;99.90;;;;;;5094835;28;19943;-77
2022/06/29 04:19:27;;;;;;;;;;;26.60;99.90;;;;;;5094997;28;19931;-75
2022/06/29 04:21:55;;;;;;;;;;;26.50;99.90;;;;;;5111929;28;19928;-75
2022/06/29 04:24:22;;;;;;;;;;;26.60;99.90;;;;;;5094858;28;20022;-75
2022/06/29 04:26:50;;;;;;;;;;;26.70;99.90;;;;;;5111554;28;19924;-75
2022/06/29 04:29:17;;;;;;;;;;;26.90;99.90;;;;;;5091432;28;19920;-75
2022/06/29 04:31:44;;;;;;;;;;;26.90;99.90;;;;;;5074109;28;20387;-75
2022/06/29 04:34:12;;;;;;;;;;;26.80;99.90;;;;;;5074135;28;19977;-77
2022/06/29 04:36:39;;;;;;;;;;;26.80;99.90;;;;;;5057782;28;20652;-76
2022/06/29 04:39:07;;;;;;;;;;;26.80;99.90;;;;;;5090670;28;19959;-76
2022/06/29 04:41:34;;;;;;;;;;;26.80;99.90;;;;;;5090355;28;19924;-76
2022/06/29 04:44:01;;;;;;;;;;;26.80;99.90;;;;;;5107888;28;20008;-76
2022/06/29 04:46:29;;;;;;;;;;;26.80;99.90;;;;;;5108048;28;19924;-74
2022/06/29 04:48:58;;;;;;;;;;;26.80;99.90;;;;;;5057177;28;19920;-74
2022/06/29 04:51:27;;;;;;;;;;;26.80;99.90;;;;;;5075164;28;19938;-75
2022/06/29 04:53:55;;;;;;;;;;;26.90;99.90;;;;;;5090870;28;19924;-75
2022/06/29 04:56:27;;;;;;;;;;;27.00;99.90;;;;;;5082134;28;20008;-75
2022/06/29 04:58:55;;;;;;;;;;;27.00;99.90;;;;;;5103801;28;19920;-75
2022/06/29 05:01:24;;;;;;;;;;;27.10;99.90;;;;;;5090254;28;19935;-75
2022/06/29 05:03:51;;;;;;;;;;;27.10;99.90;;;;;;5090526;28;19980;-74
2022/06/29 05:06:20;;;;;;;;;;;27.20;99.90;;;;;;5090169;28;19924;-74
2022/06/29 05:08:48;;;;;;;;;;;27.50;99.90;;;;;;5089648;28;20250;-75
2022/06/29 05:11:17;;;;;;;;;;;27.70;99.90;;;;;;5089424;28;19920;-73
2022/06/29 05:13:45;;;;;;;;;;;28.00;99.90;;;;;;5099964;28;19923;-75
2022/06/29 05:16:13;;;;;;;;;;;28.20;99.90;;;;;;5110288;28;19923;-75
2022/06/29 05:18:40;;;;;;;;;;;28.40;99.90;;;;;;5110241;28;20728;-75
2022/06/29 05:21:09;;;;;;;;;;;28.40;99.90;;;;;;5110349;28;20004;-75
2022/06/29 05:23:36;;;;;;;;;;;28.30;99.90;;;;;;5110229;28;19932;-74
2022/06/29 05:26:03;;;;;;;;;;;28.40;99.90;;;;;;5093566;28;19919;-74
2022/06/29 05:28:31;;;;;;;;;;;28.50;99.90;;;;;;5093366;28;19923;-76
2022/06/29 05:30:58;;;;;;;;;;;28.50;99.90;;;;;;5110251;28;19926;-74
2022/06/29 05:33:35;;;;;;;;;;;28.50;99.90;;;;;;5111375;28;20392;-75
2022/06/29 05:36:04;;;;;;;;;;;28.60;99.90;;;;;;5111278;28;20360;-75
2022/06/29 05:38:32;;;;;;;;;;;28.80;99.90;;;;;;5111612;28;20346;-75
2022/06/29 05:41:02;;;;;;;;;;;28.80;99.90;;;;;;5110404;28;20448;-77
2022/06/29 05:43:32;;;;;;;;;;;29.00;99.90;;;;;;5093507;28;20381;-76
2022/06/29 05:46:00;;;;;;;;;;;29.20;99.90;;;;;;5111606;28;19976;-75
2022/06/29 05:48:27;;;;;;;;;;;29.30;99.90;;;;;;5110410;28;20340;-75
2022/06/29 05:50:55;;;;;;;;;;;29.50;99.90;;;;;;5093156;28;20385;-75
2022/06/29 05:53:22;;;;;;;;;;;29.70;99.90;;;;;;5109591;28;19923;-73
2022/06/29 05:55:50;;;;;;;;;;;29.70;99.90;;;;;;5109842;28;20064;-73
2022/06/29 05:58:19;;;;;;;;;;;29.70;99.90;;;;;;5093076;28;19924;-73
2022/06/29 06:00:47;;;;;;;;;;;29.90;99.60;;;;;;5111160;28;19929;-75
2022/06/29 06:03:15;;;;;;;;;;;30.10;99.40;;;;;;5109569;28;19977;-73
2022/06/29 06:05:42;;;;;;;;;;;30.20;98.20;;;;;;5111120;28;19924;-73
2022/06/29 06:08:11;;;;;;;;;;;30.10;98.10;;;;;;5108111;28;19927;-73
2022/06/29 06:10:39;;;;;;;;;;;30.10;98.00;;;;;;5110054;28;19923;-74
2022/06/29 06:13:07;;;;;;;;;;;30.10;98.00;;;;;;5093329;28;19919;-74
2022/06/29 06:15:35;;;;;;;;;;;30.20;97.40;;;;;;5092518;28;20316;-74
2022/06/29 06:18:02;;;;;;;;;;;30.00;96.80;;;;;;5092319;28;19988;-75
2022/06/29 06:20:30;;;;;;;;;;;30.00;96.70;;;;;;5109696;28;19931;-74
2022/06/29 06:22:58;;;;;;;;;;;30.10;97.30;;;;;;5109487;28;19931;-74
2022/06/29 06:25:28;;;;;;;;;;;30.20;96.60;;;;;;5110859;28;19927;-74
2022/06/29 06:27:56;;;;;;;;;;;30.30;96.30;;;;;;5109311;28;20341;-75
2022/06/29 06:30:23;;;;;;;;;;;30.40;96.10;;;;;;5094773;28;20381;-75
2022/06/29 06:32:50;;;;;;;;;;;30.50;95.60;;;;;;5113684;28;19924;-75
2022/06/29 06:35:19;;;;;;;;;;;30.60;95.90;;;;;;5096327;28;19931;-75
2022/06/29 06:37:47;;;;;;;;;;;30.80;96.00;;;;;;5096703;28;19924;-75
2022/06/29 06:43:01;;;;;;;;;;;30.70;94.70;;;;;;5113046;28;19920;-75
2022/06/29 06:45:29;;;;;;;;;;;30.80;96.30;;;;;;5112895;28;19927;-75
2022/06/29 06:47:57;;;;;;;;;;;30.80;95.60;;;;;;5113044;28;20029;-75
2022/06/29 06:50:24;;;;;;;;;;;30.90;94.90;;;;;;5113551;28;19920;-75
2022/06/29 06:52:51;;;;;;;;;;;30.90;94.70;;;;;;5113132;28;19943;-75
2022/06/29 06:55:19;;;;;;;;;;;31.10;94.90;;;;;;5113150;28;20023;-75
2022/06/29 06:57:46;;;;;;;;;;;31.10;94.10;;;;;;5096553;28;19965;-76
2022/06/29 07:00:14;;;;;;;;;;;30.90;93.40;;;;;;5095353;28;20378;-75
2022/06/29 07:02:41;;;;;;;;;;;30.80;93.60;;;;;;5093586;28;20290;-75
2022/06/29 07:05:09;;;;;;;;;;;30.80;93.40;;;;;;5112617;28;19923;-75
2022/06/29 07:07:36;;;;;;;;;;;30.90;93.70;;;;;;5096414;28;20338;-75
2022/06/29 07:10:04;;;;;;;;;;;31.00;92.70;;;;;;5112685;28;20046;-75
2022/06/29 07:12:31;;;;;;;;;;;31.20;92.30;;;;;;5113911;28;19924;-75
2022/06/29 07:14:59;;;;;;;;;;;31.20;90.80;;;;;;5112142;28;19927;-76
2022/06/29 07:17:26;;;;;;;;;;;31.10;89.90;;;;;;5114066;28;20441;-75
2022/06/29 07:19:54;;;;;;;;;;;31.30;88.90;;;;;;5113045;28;20351;-75
2022/06/29 07:22:21;;;;;;;;;;;31.40;88.00;;;;;;5114066;28;19924;-76
2022/06/29 07:24:49;;;;;;;;;;;31.60;89.60;;;;;;5113918;28;19949;-76
2022/06/29 07:27:16;;;;;;;;;;;31.50;89.90;;;;;;5113452;28;20018;-75
2022/06/29 07:29:43;;;;;;;;;;;31.20;90.00;;;;;;5095663;28;19927;-75
2022/06/29 07:32:11;;;;;;;;;;;31.00;89.90;;;;;;5112455;28;19924;-75
2022/06/29 07:34:38;;;;;;;;;;;30.80;90.80;;;;;;5112710;28;19973;-75
2022/06/29 07:37:06;;;;;;;;;;;30.80;91.10;;;;;;5113420;28;19999;-76
2022/06/29 07:39:33;;;;;;;;;;;30.90;91.50;;;;;;5112280;28;20392;-76
2022/06/29 07:42:07;;;;;;;;;;;31.10;91.50;;;;;;5093947;28;19951;-75
2022/06/29 07:44:34;;;;;;;;;;;31.10;91.60;;;;;;5113318;28;19924;-75
2022/06/29 07:47:02;;;;;;;;;;;31.10;91.50;;;;;;5113357;28;19923;-76
2022/06/29 07:49:30;;;;;;;;;;;31.30;91.30;;;;;;5112042;28;19919;-75
2022/06/29 07:51:57;;;;;;;;;;;31.50;91.10;;;;;;5111881;28;19919;-76
2022/06/29 07:54:25;;;;;;;;;;;31.70;90.80;;;;;;5112147;28;19931;-76
2022/06/29 07:56:52;;;;;;;;;;;32.00;90.40;;;;;;5108773;28;19941;-75
2022/06/29 07:59:39;;;;;;;;;;;32.00;90.20;;;;;;5128380;27;19919;-76
2022/06/29 08:02:07;;;;;;;;;;;32.00;90.20;;;;;;5112295;28;19992;-76
2022/06/29 08:04:34;;;;;;;;;;;31.90;90.60;;;;;;5095458;28;19996;-75
2022/06/29 08:07:20;;;;;;;;;;;32.10;90.40;;;;;;5112801;28;20018;-76
2022/06/29 08:09:49;;;;;;;;;;;32.10;88.70;;;;;;5095406;28;19961;-76
2022/06/29 08:12:17;;;;;;;;;;;32.00;88.50;;;;;;5111859;28;19977;-75
2022/06/29 08:14:44;;;;;;;;;;;32.10;88.80;;;;;;5112712;28;19923;-75
2022/06/29 08:17:11;;;;;;;;;;;32.10;87.80;;;;;;5094991;28;19973;-76
2022/06/29 08:19:39;;;;;;;;;;;32.30;87.40;;;;;;5094865;28;19930;-76
2022/06/29 08:22:06;;;;;;;;;;;32.30;87.90;;;;;;5094498;28;20390;-75
2022/06/29 08:24:33;;;;;;;;;;;32.30;88.00;;;;;;5094828;28;19992;-76
2022/06/29 08:27:01;;;;;;;;;;;32.40;87.80;;;;;;5112258;28;19924;-76
2022/06/29 08:29:49;;;;;;;;;;;32.60;88.10;;;;;;5080533;28;20014;-75
2022/06/29 08:32:16;;;;;;;;;;;32.70;86.40;;;;;;5112497;28;19967;-76
2022/06/29 08:34:44;;;;;;;;;;;32.70;87.90;;;;;;5111293;28;20038;-76
2022/06/29 08:37:11;;;;;;;;;;;32.80;87.60;;;;;;5111202;28;20020;-76
2022/06/29 08:39:39;;;;;;;;;;;32.90;87.10;;;;;;5094060;28;19920;-76
2022/06/29 08:42:07;;;;;;;;;;;32.80;87.40;;;;;;5077861;28;19931;-76
2022/06/29 08:44:36;;;;;;;;;;;33.00;86.30;;;;;;5094373;28;19926;-76
2022/06/29 08:47:04;;;;;;;;;;;33.10;85.10;;;;;;5110675;28;19923;-76
2022/06/29 08:49:32;;;;;;;;;;;33.10;84.10;;;;;;5110776;28;19920;-76
2022/06/29 08:52:03;;;;;;;;;;;33.20;84.20;;;;;;5110086;28;19923;-76
2022/06/29 08:54:31;;;;;;;;;;;33.20;84.30;;;;;;5110536;28;20007;-76
2022/06/29 08:56:59;;;;;;;;;;;33.20;84.10;;;;;;5110857;28;19924;-76
2022/06/29 08:59:27;;;;;;;;;;;33.40;83.30;;;;;;5111928;28;20413;-77
2022/06/29 09:02:10;;;;;;;;;;;33.50;82.70;;;;;;5094017;28;20367;-76
2022/06/29 09:04:38;;;;;;;;;;;33.50;81.90;;;;;;5094253;28;20026;-77
2022/06/29 09:07:06;;;;;;;;;;;33.50;79.80;;;;;;5110667;28;19927;-76
2022/06/29 09:09:53;;;;;;;;;;;33.50;79.60;;;;;;5110994;28;19930;-76
2022/06/29 09:12:21;;;;;;;;;;;33.50;80.40;;;;;;5110440;28;20029;-76
2022/06/29 09:14:48;;;;;;;;;;;33.50;80.90;;;;;;5110191;28;19924;-76
2022/06/29 09:17:17;;;;;;;;;;;33.70;80.70;;;;;;5093832;28;19927;-76
2022/06/29 09:19:45;;;;;;;;;;;33.60;80.40;;;;;;5093826;28;19919;-76
2022/06/29 09:22:13;;;;;;;;;;;33.60;80.10;;;;;;5111489;28;19930;-76
2022/06/29 09:24:41;;;;;;;;;;;33.90;79.60;;;;;;5110057;28;19951;-76
2022/06/29 09:27:25;;;;;;;;;;;34.00;78.80;;;;;;5111518;28;19924;-76
2022/06/29 09:29:53;;;;;;;;;;;33.70;78.60;;;;;;5093074;28;20396;-76
2022/06/29 09:32:21;;;;;;;;;;;33.80;79.10;;;;;;5110127;28;19923;-74
2022/06/29 09:34:50;;;;;;;;;;;33.80;78.80;;;;;;5110406;28;19923;-74
2022/06/29 09:37:23;;;;;;;;;;;34.00;79.20;;;;;;5126773;27;19923;-75
2022/06/29 09:39:54;;;;;;;;;;;34.10;78.50;;;;;;5110284;28;20030;-76
2022/06/29 09:42:23;;;;;;;;;;;34.10;77.40;;;;;;5093116;28;20022;-76
2022/06/29 09:44:51;;;;;;;;;;;34.20;77.80;;;;;;5110323;28;19928;-76
2022/06/29 09:47:19;;;;;;;;;;;34.40;77.30;;;;;;5109450;28;19970;-76
2022/06/29 09:49:48;;;;;;;;;;;34.40;77.50;;;;;;5107776;28;19951;-76
2022/06/29 09:52:16;;;;;;;;;;;34.40;77.80;;;;;;5110046;28;19924;-76
2022/06/29 09:54:47;;;;;;;;;;;34.40;78.00;;;;;;5111129;28;19919;-75
2022/06/29 09:57:18;;;;;;;;;;;34.30;78.70;;;;;;5110952;28;19930;-75
2022/06/29 10:02:37;;;;;;;;;;;34.20;79.80;;;;;;5092831;28;19948;-75
2022/06/29 10:05:15;;;;;;;;;;;34.10;79.80;;;;;;5111536;28;19926;-75
2022/06/29 10:07:44;;;;;;;;;;;34.00;80.20;;;;;;5097040;28;19919;-76
2022/06/29 10:10:15;;;;;;;;;;;34.00;80.70;;;;;;5097195;28;19946;-76
2022/06/29 10:15:49;;;;;;;;;;;34.00;80.00;;;;;;5113294;28;19977;-76
2022/06/29 10:18:16;;;;;;;;;;;33.80;80.00;;;;;;5096761;28;19928;-76
2022/06/29 10:20:48;;;;;;;;;;;33.70;80.30;;;;;;5114174;28;20342;-75
2022/06/29 10:23:34;;;;;;;;;;;33.60;79.80;;;;;;5113594;28;19923;-75
2022/06/29 10:26:02;;;;;;;;;;;33.60;81.40;;;;;;5097041;28;19923;-75
2022/06/29 10:28:29;;;;;;;;;;;33.80;81.30;;;;;;5096850;28;19920;-75
2022/06/29 10:30:58;;;;;;;;;;;33.90;81.40;;;;;;5113887;28;19932;-76
2022/06/29 10:33:35;;;;;;;;;;;33.80;81.90;;;;;;5113738;28;19926;-75
2022/06/29 10:36:06;;;;;;;;;;;33.70;80.40;;;;;;5113014;28;19930;-76
2022/06/29 10:38:49;;;;;;;;;;;33.60;81.00;;;;;;5112416;28;19920;-75
2022/06/29 10:44:07;;;;;;;;;;;33.30;82.40;;;;;;5105775;28;20018;-75
2022/06/29 10:47:09;;;;;;;;;;;33.30;80.80;;;;;;5094205;28;20347;-76
2022/06/29 10:49:37;;;;;;;;;;;33.10;81.60;;;;;;5018110;28;19929;-76
2022/06/29 10:52:04;;;;;;;;;;;33.20;80.90;;;;;;5086063;28;19924;-75
2022/06/29 10:54:32;;;;;;;;;;;33.10;81.20;;;;;;5092866;28;19924;-76
2022/06/29 10:56:59;;;;;;;;;;;33.00;82.80;;;;;;5093751;28;20364;-76
2022/06/29 10:59:31;;;;;;;;;;;32.80;83.20;;;;;;5093483;28;19928;-75
2022/06/29 11:02:15;;;;;;;;;;;32.80;81.50;;;;;;5075907;28;20389;-74
2022/06/29 11:04:43;;;;;;;;;;;32.80;81.10;;;;;;5092823;28;20285;-78
2022/06/29 11:12:49;;;;;;;;;;;33.00;84.10;;;;;;5075522;28;19927;-76
2022/06/29 11:15:41;;;;;;;;;;;33.10;84.10;;;;;;5075202;28;19967;-75
2022/06/29 11:18:13;;;;;;;;;;;33.00;84.30;;;;;;5092291;28;20358;-75
2022/06/29 11:20:41;;;;;;;;;;;32.90;81.40;;;;;;5058601;28;20381;-74
2022/06/29 11:23:13;;;;;;;;;;;32.90;82.70;;;;;;5092211;28;19928;-75
2022/06/29 11:25:47;;;;;;;;;;;33.00;83.90;;;;;;5092486;28;20014;-76
2022/06/29 11:28:18;;;;;;;;;;;32.90;83.60;;;;;;5092248;28;20293;-75
2022/06/29 11:31:12;;;;;;;;;;;32.80;83.10;;;;;;5092019;28;19931;-76
2022/06/29 11:33:43;;;;;;;;;;;32.80;84.30;;;;;;5089636;28;19931;-76
2022/06/29 11:36:15;;;;;;;;;;;32.70;83.00;;;;;;5091993;28;19973;-76
2022/06/29 11:38:50;;;;;;;;;;;32.70;81.70;;;;;;5109498;28;20644;-75
2022/06/29 11:41:18;;;;;;;;;;;32.50;82.90;;;;;;5112279;28;19923;-75
2022/06/29 11:44:20;;;;;;;;;;;32.60;84.60;;;;;;5096739;28;20273;-76
2022/06/29 11:46:47;;;;;;;;;;;32.80;83.80;;;;;;5108720;28;19953;-75
2022/06/29 11:49:33;;;;;;;;;;;32.70;82.70;;;;;;5113126;28;19923;-76
2022/06/29 11:52:01;;;;;;;;;;;32.80;83.60;;;;;;5095400;28;19923;-75
2022/06/29 11:54:36;;;;;;;;;;;32.50;85.80;;;;;;5113209;28;19924;-75
2022/06/29 11:57:09;;;;;;;;;;;32.70;84.60;;;;;;5093394;28;19980;-75
2022/06/29 11:59:37;;;;;;;;;;;32.90;83.20;;;;;;5094520;28;19923;-75
2022/06/29 12:02:04;;;;;;;;;;;32.90;84.50;;;;;;5094223;28;19919;-75
2022/06/29 12:04:33;;;;;;;;;;;32.90;82.10;;;;;;5111148;28;19935;-75
2022/06/29 12:07:05;;;;;;;;;;;32.70;84.70;;;;;;5110946;28;19920;-77
2022/06/29 12:09:32;;;;;;;;;;;32.80;83.90;;;;;;5112522;28;19962;-75
2022/06/29 12:12:00;;;;;;;;;;;32.90;82.30;;;;;;5110851;28;19924;-75
2022/06/29 12:14:28;;;;;;;;;;;32.80;82.20;;;;;;5094080;28;19920;-75
2022/06/29 12:16:55;;;;;;;;;;;32.70;82.20;;;;;;5093557;28;20060;-75
2022/06/29 12:19:23;;;;;;;;;;;32.70;82.20;;;;;;5093650;28;19923;-75
2022/06/29 12:21:51;;;;;;;;;;;32.80;82.20;;;;;;5111972;28;19930;-74
2022/06/29 12:24:19;;;;;;;;;;;32.80;82.00;;;;;;5110131;28;19935;-75
2022/06/29 12:26:47;;;;;;;;;;;32.90;82.20;;;;;;5092988;28;19974;-76
2022/06/29 12:29:15;;;;;;;;;;;33.00;79.90;;;;;;5093259;28;19923;-75
2022/06/29 12:31:43;;;;;;;;;;;32.90;79.10;;;;;;5110342;28;20397;-75
2022/06/29 12:34:11;;;;;;;;;;;32.80;80.30;;;;;;5109846;28;19972;-75
2022/06/29 12:36:53;;;;;;;;;;;32.90;80.80;;;;;;5092308;28;19931;-76
2022/06/29 12:39:20;;;;;;;;;;;32.90;79.40;;;;;;5111169;28;19960;-76
2022/06/29 12:41:48;;;;;;;;;;;32.80;81.90;;;;;;5110386;28;19934;-76
2022/06/29 12:44:15;;;;;;;;;;;32.70;81.70;;;;;;5110527;28;19927;-75
2022/06/29 12:46:43;;;;;;;;;;;32.80;80.00;;;;;;5110246;28;19969;-76
2022/06/29 12:49:12;;;;;;;;;;;32.80;81.20;;;;;;5110346;28;19931;-75
2022/06/29 12:51:39;;;;;;;;;;;32.80;80.40;;;;;;5109965;28;19919;-75
2022/06/29 12:54:07;;;;;;;;;;;32.70;80.70;;;;;;5110128;28;20380;-75
2022/06/29 12:56:34;;;;;;;;;;;32.70;81.50;;;;;;5111350;28;19924;-75
2022/06/29 12:59:02;;;;;;;;;;;32.40;81.90;;;;;;5092707;28;20004;-75
2022/06/29 13:01:30;;;;;;;;;;;32.50;78.50;;;;;;5110739;28;19923;-75
2022/06/29 13:04:00;;;;;;;;;;;32.60;81.40;;;;;;5112008;28;20464;-76
2022/06/29 13:06:28;;;;;;;;;;;32.70;82.10;;;;;;5093714;28;20042;-75
2022/06/29 13:08:56;;;;;;;;;;;32.70;80.00;;;;;;5110492;28;20018;-75
2022/06/29 13:11:24;;;;;;;;;;;32.70;80.60;;;;;;5111739;28;19923;-76
2022/06/29 13:13:51;;;;;;;;;;;32.70;82.00;;;;;;5110571;28;19920;-75
2022/06/29 13:16:19;;;;;;;;;;;32.70;80.50;;;;;;5109888;28;19928;-75
2022/06/29 13:18:47;;;;;;;;;;;32.70;79.40;;;;;;5093821;28;19924;-75
2022/06/29 13:21:14;;;;;;;;;;;32.70;80.10;;;;;;5103541;28;19927;-76
2022/06/29 13:23:42;;;;;;;;;;;32.90;80.70;;;;;;5090295;28;19930;-76
2022/06/29 13:26:09;;;;;;;;;;;32.80;80.10;;;;;;5106697;28;19930;-75
2022/06/29 13:28:42;;;;;;;;;;;32.80;80.40;;;;;;5073152;28;19931;-75
2022/06/29 13:31:10;;;;;;;;;;;32.80;79.50;;;;;;5106961;28;19923;-76
2022/06/29 13:33:38;;;;;;;;;;;32.80;81.60;;;;;;5089358;28;19931;-75
2022/06/29 13:36:06;;;;;;;;;;;32.80;82.10;;;;;;5089616;28;19986;-76
2022/06/29 13:38:34;;;;;;;;;;;32.90;81.60;;;;;;5089396;28;19969;-75
2022/06/29 13:41:01;;;;;;;;;;;32.90;81.30;;;;;;5089253;28;19928;-76
2022/06/29 13:43:29;;;;;;;;;;;32.90;81.80;;;;;;5090991;28;19920;-75
2022/06/29 13:45:57;;;;;;;;;;;32.60;82.80;;;;;;5090012;28;19924;-75
2022/06/29 13:48:24;;;;;;;;;;;32.50;82.50;;;;;;5089664;28;19924;-76
2022/06/29 13:50:52;;;;;;;;;;;32.70;82.90;;;;;;5090662;28;19969;-75
2022/06/29 13:53:20;;;;;;;;;;;32.80;82.20;;;;;;5072613;28;19924;-75
2022/06/29 13:55:48;;;;;;;;;;;32.80;81.60;;;;;;5106268;28;19936;-75
2022/06/29 13:58:17;;;;;;;;;;;33.00;81.90;;;;;;5106640;28;19924;-75
2022/06/29 14:00:45;;;;;;;;;;;32.80;82.60;;;;;;5106659;28;19959;-75
2022/06/29 14:03:13;;;;;;;;;;;32.70;82.50;;;;;;5106730;28;19924;-75
2022/06/29 14:05:40;;;;;;;;;;;32.70;81.70;;;;;;5090030;28;19924;-75
2022/06/29 14:08:08;;;;;;;;;;;32.70;81.60;;;;;;5090681;28;19920;-75
2022/06/29 14:10:57;;;;;;;;;;;32.80;82.50;;;;;;5072851;28;20628;-75
2022/06/29 14:13:24;;;;;;;;;;;32.70;81.20;;;;;;5072974;28;19924;-76
2022/06/29 14:15:52;;;;;;;;;;;32.70;81.20;;;;;;5072175;28;20256;-75
2022/06/29 14:18:20;;;;;;;;;;;32.70;81.90;;;;;;5089389;28;19924;-75
2022/06/29 14:20:47;;;;;;;;;;;32.80;81.40;;;;;;5095475;28;19928;-75
2022/06/29 14:23:15;;;;;;;;;;;32.70;81.50;;;;;;5110531;28;20015;-75
2022/06/29 14:25:42;;;;;;;;;;;32.70;81.80;;;;;;5093236;28;19924;-75
2022/06/29 14:28:10;;;;;;;;;;;32.70;82.40;;;;;;5110794;28;19946;-75
2022/06/29 14:30:37;;;;;;;;;;;32.70;82.40;;;;;;5092721;28;19924;-76
2022/06/29 14:33:04;;;;;;;;;;;32.50;83.10;;;;;;5110610;28;19931;-76
2022/06/29 14:35:32;;;;;;;;;;;32.40;82.10;;;;;;5110993;28;19923;-76
2022/06/29 14:38:02;;;;;;;;;;;32.50;82.00;;;;;;5092224;28;20442;-75
2022/06/29 14:40:30;;;;;;;;;;;32.50;80.60;;;;;;5109768;28;20418;-75
2022/06/29 14:42:58;;;;;;;;;;;32.50;80.50;;;;;;5109732;28;19973;-75
2022/06/29 14:45:26;;;;;;;;;;;32.50;81.50;;;;;;5092449;28;19923;-76
2022/06/29 14:47:54;;;;;;;;;;;32.50;80.30;;;;;;5109793;28;19920;-76